createdAt,value
2023-05-01T00:02:10.275Z,7.04
2023-05-01T00:05:19.081Z,7.05
2023-05-01T00:08:27.380Z,7.12
2023-05-01T00:11:37.581Z,7.09
2023-05-01T00:14:45.435Z,7.08
2023-05-01T00:17:54.180Z,7.07
2023-05-01T00:21:04.832Z,7.02
2023-05-01T00:24:12.836Z,7.02
2023-05-01T00:27:22.076Z,7.02
2023-05-01T00:30:31.953Z,7.01
2023-05-01T00:33:40.445Z,7.02
2023-05-01T00:36:49.997Z,6.95
2023-05-01T00:39:49.423Z,6.95
2023-05-01T00:42:57.650Z,6.89
2023-05-01T00:46:06.188Z,6.86
2023-05-01T00:49:15.054Z,6.81
2023-05-01T00:52:25.309Z,6.80
2023-05-01T00:55:33.758Z,6.81
2023-05-01T00:57:32.643Z,6.80
2023-05-01T01:00:42.340Z,6.77
2023-05-01T01:03:51.096Z,6.77
2023-05-01T01:06:59.943Z,6.79
2023-05-01T01:10:09.815Z,6.76
2023-05-01T01:13:18.718Z,6.73
2023-05-01T01:16:27.318Z,6.76
2023-05-01T01:19:36.195Z,6.77
2023-05-01T01:22:45.546Z,6.72
2023-05-01T01:25:54.775Z,6.68
2023-05-01T01:29:03.026Z,6.63
2023-05-01T01:32:13.410Z,6.61
2023-05-01T01:35:21.823Z,6.58
2023-05-01T01:38:30.066Z,6.54
2023-05-01T01:41:40.384Z,6.53
2023-05-01T01:44:50.115Z,6.50
2023-05-01T01:47:58.438Z,6.44
2023-05-01T01:51:08.410Z,6.43
2023-05-01T01:54:16.923Z,6.44
2023-05-01T01:57:25.979Z,6.44
2023-05-01T02:00:35.870Z,6.40
2023-05-01T02:03:43.994Z,6.43
2023-05-01T02:06:53.549Z,6.41
2023-05-01T02:10:02.025Z,6.41
2023-05-01T02:13:12.261Z,6.40
2023-05-01T02:16:20.742Z,6.38
2023-05-01T02:19:29.968Z,6.40
2023-05-01T02:22:40.402Z,6.40
2023-05-01T02:25:49.592Z,6.36
2023-05-01T02:28:57.830Z,6.33
2023-05-01T02:32:08.540Z,6.26
2023-05-01T02:35:56.221Z,6.28
2023-05-01T02:39:05.046Z,6.29
2023-05-01T02:42:15.446Z,6.26
2023-05-01T02:45:24.205Z,6.21
2023-05-01T02:48:32.462Z,6.18
2023-05-01T02:51:42.273Z,6.13
2023-05-01T02:54:51.708Z,6.06
2023-05-01T02:58:00.579Z,6.04
2023-05-01T03:01:09.399Z,5.96
2023-05-01T03:04:18.751Z,5.95
2023-05-01T03:07:27.980Z,5.93
2023-05-01T03:10:36.515Z,5.92
2023-05-01T03:13:46.700Z,5.96
2023-05-01T03:16:54.810Z,5.98
2023-05-01T03:20:03.614Z,6.01
2023-05-01T03:23:13.718Z,6.01
2023-05-01T03:26:23.076Z,6.04
2023-05-01T03:29:32.376Z,6.06
2023-05-01T03:32:42.809Z,6.06
2023-05-01T03:35:50.775Z,6.04
2023-05-01T03:38:59.688Z,6.01
2023-05-01T03:42:10.573Z,5.95
2023-05-01T03:45:19.505Z,5.91
2023-05-01T03:48:28.265Z,5.85
2023-05-01T03:51:36.566Z,5.85
2023-05-01T03:54:47.078Z,5.82
2023-05-01T03:57:55.042Z,5.81
2023-05-01T04:01:04.275Z,5.82
2023-05-01T04:04:14.503Z,5.86
2023-05-01T04:07:22.986Z,5.91
2023-05-01T04:10:31.532Z,5.96
2023-05-01T04:13:40.850Z,6.09
2023-05-01T04:16:49.606Z,6.18
2023-05-01T04:19:59.219Z,6.29
2023-05-01T04:23:09.298Z,6.40
2023-05-01T04:26:18.806Z,6.48
2023-05-01T04:29:27.349Z,6.58
2023-05-01T04:32:36.677Z,6.66
2023-05-01T04:35:36.315Z,6.76
2023-05-01T04:38:44.691Z,6.81
2023-05-01T04:41:54.104Z,6.84
2023-05-01T04:45:03.941Z,6.95
2023-05-01T04:48:12.985Z,7.02
2023-05-01T04:51:21.413Z,7.12
2023-05-01T04:54:31.765Z,7.20
2023-05-01T04:57:40.138Z,7.24
2023-05-01T05:00:48.613Z,7.32
2023-05-01T05:03:49.999Z,7.41
2023-05-01T05:06:59.117Z,7.50
2023-05-01T05:10:08.808Z,7.55
2023-05-01T05:13:17.864Z,7.62
2023-05-01T05:16:27.976Z,7.74
2023-05-01T05:19:36.443Z,7.81
2023-05-01T05:22:45.107Z,7.77
2023-05-01T05:25:55.791Z,7.78
2023-05-01T05:29:03.713Z,7.78
2023-05-01T05:32:12.572Z,7.81
2023-05-01T05:35:23.082Z,7.79
2023-05-01T05:38:31.761Z,7.82
2023-05-01T05:41:41.149Z,7.87
2023-05-01T05:44:50.877Z,7.96
2023-05-01T05:47:59.588Z,8.07
2023-05-01T05:51:09.389Z,8.14
2023-05-01T05:54:19.096Z,8.25
2023-05-01T05:57:28.087Z,8.29
2023-05-01T06:00:36.606Z,8.32
2023-05-01T06:03:45.362Z,8.42
2023-05-01T06:06:55.940Z,8.55
2023-05-01T06:10:05.306Z,8.71
2023-05-01T06:13:15.077Z,8.90
2023-05-01T06:16:24.393Z,9.10
2023-05-01T06:19:33.348Z,9.30
2023-05-01T06:22:41.967Z,9.52
2023-05-01T06:25:51.429Z,9.71
2023-05-01T06:28:59.975Z,9.93
2023-05-01T06:32:09.019Z,10.14
2023-05-01T06:35:18.550Z,10.32
2023-05-01T06:38:27.485Z,10.47
2023-05-01T06:41:36.917Z,10.63
2023-05-01T06:44:44.863Z,10.78
2023-05-01T06:47:55.310Z,10.96
2023-05-01T06:51:04.335Z,11.11
2023-05-01T06:54:12.718Z,11.27
2023-05-01T06:57:23.001Z,11.49
2023-05-01T07:00:30.996Z,11.65
2023-05-01T07:03:39.520Z,11.71
2023-05-01T07:06:50.076Z,11.86
2023-05-01T07:09:59.479Z,11.99
2023-05-01T07:13:07.593Z,12.19
2023-05-01T07:16:18.518Z,12.31
2023-05-01T07:19:27.080Z,12.57
2023-05-01T07:22:35.761Z,12.69
2023-05-01T07:25:45.784Z,12.85
2023-05-01T07:28:54.725Z,13.02
2023-05-01T07:32:03.575Z,13.20
2023-05-01T07:35:12.786Z,13.33
2023-05-01T07:38:23.005Z,13.47
2023-05-01T07:41:31.347Z,13.59
2023-05-01T07:44:39.488Z,13.81
2023-05-01T07:47:49.782Z,13.88
2023-05-01T07:50:58.909Z,13.91
2023-05-01T07:54:07.830Z,13.98
2023-05-01T07:57:17.196Z,14.09
2023-05-01T08:00:26.485Z,14.24
2023-05-01T08:03:34.761Z,14.38
2023-05-01T08:06:45.733Z,14.54
2023-05-01T08:09:53.940Z,14.64
2023-05-01T08:13:02.865Z,14.71
2023-05-01T08:16:11.265Z,14.81
2023-05-01T08:19:21.242Z,14.88
2023-05-01T08:22:29.868Z,14.87
2023-05-01T08:25:39.608Z,14.94
2023-05-01T08:28:49.615Z,14.99
2023-05-01T08:31:58.678Z,15.13
2023-05-01T08:35:07.754Z,15.30
2023-05-01T08:38:18.611Z,15.45
2023-05-01T08:41:26.780Z,15.49
2023-05-01T08:44:36.536Z,15.70
2023-05-01T08:47:47.327Z,15.82
2023-05-01T08:50:57.852Z,15.79
2023-05-01T08:54:06.859Z,15.88
2023-05-01T08:57:17.496Z,15.93
2023-05-01T09:00:26.965Z,16.12
2023-05-01T09:03:36.150Z,16.31
2023-05-01T09:06:45.374Z,16.45
2023-05-01T09:09:55.221Z,16.56
2023-05-01T09:13:03.916Z,16.78
2023-05-01T09:16:13.934Z,16.92
2023-05-01T09:19:23.859Z,17.11
2023-05-01T09:22:32.911Z,17.22
2023-05-01T09:25:41.803Z,17.25
2023-05-01T09:28:51.424Z,17.17
2023-05-01T09:32:00.521Z,17.30
2023-05-01T09:33:59.697Z,17.26
2023-05-01T09:37:08.187Z,17.30
2023-05-01T09:40:19.268Z,17.54
2023-05-01T09:43:27.478Z,17.71
2023-05-01T09:46:36.321Z,17.69
2023-05-01T09:49:46.827Z,17.88
2023-05-01T09:52:55.789Z,18.10
2023-05-01T09:56:03.822Z,18.17
2023-05-01T09:59:14.383Z,18.43
2023-05-01T10:02:22.476Z,18.50
2023-05-01T10:05:31.342Z,18.55
2023-05-01T10:08:41.497Z,18.74
2023-05-01T10:11:50.341Z,18.92
2023-05-01T10:15:00.471Z,19.05
2023-05-01T10:18:00.006Z,19.17
2023-05-01T10:21:09.586Z,19.20
2023-05-01T10:24:18.184Z,19.24
2023-05-01T10:27:26.403Z,19.43
2023-05-01T10:30:36.398Z,19.61
2023-05-01T10:33:44.717Z,19.76
2023-05-01T10:36:54.181Z,19.70
2023-05-01T10:40:03.491Z,19.84
2023-05-01T10:43:12.075Z,20.05
2023-05-01T10:46:20.997Z,19.86
2023-05-01T10:49:31.503Z,19.86
2023-05-01T10:52:39.766Z,19.75
2023-05-01T10:55:48.281Z,19.58
2023-05-01T10:58:57.645Z,19.69
2023-05-01T11:02:06.930Z,19.79
2023-05-01T11:05:23.701Z,19.91
2023-05-01T11:08:22.728Z,19.98
2023-05-01T11:11:35.108Z,19.69
2023-05-01T11:14:34.158Z,19.78
2023-05-01T11:17:43.012Z,20.16
2023-05-01T11:20:53.706Z,20.34
2023-05-01T11:24:02.442Z,20.64
2023-05-01T11:27:10.607Z,20.42
2023-05-01T11:30:20.532Z,20.49
2023-05-01T11:33:28.896Z,21.11
2023-05-01T11:36:37.875Z,21.48
2023-05-01T11:39:49.131Z,21.08
2023-05-01T11:42:58.407Z,20.58
2023-05-01T11:46:07.186Z,20.27
2023-05-01T11:49:15.219Z,20.38
2023-05-01T11:52:25.320Z,20.59
2023-05-01T11:55:33.816Z,20.81
2023-05-01T11:58:41.655Z,21.21
2023-05-01T12:01:51.645Z,21.06
2023-05-01T12:05:00.256Z,20.98
2023-05-01T12:08:08.699Z,20.80
2023-05-01T12:11:18.913Z,20.83
2023-05-01T12:14:27.726Z,21.04
2023-05-01T12:17:35.899Z,21.32
2023-05-01T12:20:46.061Z,21.42
2023-05-01T12:23:54.242Z,21.27
2023-05-01T12:27:02.479Z,21.36
2023-05-01T12:30:11.661Z,21.56
2023-05-01T12:33:21.477Z,21.44
2023-05-01T12:36:30.167Z,21.26
2023-05-01T12:39:37.979Z,21.11
2023-05-01T12:42:48.229Z,20.96
2023-05-01T12:45:56.824Z,21.01
2023-05-01T12:49:05.388Z,20.76
2023-05-01T12:52:05.315Z,20.56
2023-05-01T12:55:13.142Z,20.56
2023-05-01T12:58:22.053Z,20.74
2023-05-01T13:01:31.935Z,20.95
2023-05-01T13:04:40.694Z,21.21
2023-05-01T13:07:49.563Z,21.11
2023-05-01T13:10:58.764Z,21.20
2023-05-01T13:14:09.190Z,21.09
2023-05-01T13:17:17.757Z,20.76
2023-05-01T13:20:26.606Z,20.90
2023-05-01T13:23:36.410Z,21.24
2023-05-01T13:26:45.319Z,21.50
2023-05-01T13:29:53.633Z,21.54
2023-05-01T13:33:03.945Z,21.53
2023-05-01T13:36:22.126Z,21.56
2023-05-01T13:39:20.307Z,21.75
2023-05-01T13:42:20.542Z,21.85
2023-05-01T13:45:29.102Z,22.07
2023-05-01T13:48:38.251Z,22.34
2023-05-01T13:51:46.523Z,22.29
2023-05-01T13:54:56.919Z,22.07
2023-05-01T13:58:05.850Z,21.88
2023-05-01T14:01:14.079Z,21.90
2023-05-01T14:04:24.706Z,22.01
2023-05-01T14:07:34.048Z,22.23
2023-05-01T14:10:42.704Z,22.35
2023-05-01T14:13:42.178Z,22.38
2023-05-01T14:16:51.119Z,22.34
2023-05-01T14:19:59.493Z,22.38
2023-05-01T14:23:10.224Z,22.39
2023-05-01T14:26:19.020Z,22.28
2023-05-01T14:29:27.927Z,21.91
2023-05-01T14:32:36.925Z,21.97
2023-05-01T14:35:36.958Z,22.43
2023-05-01T14:38:45.355Z,22.62
2023-05-01T14:41:54.179Z,22.64
2023-05-01T14:45:04.349Z,22.47
2023-05-01T14:48:13.325Z,22.27
2023-05-01T14:51:22.819Z,22.23
2023-05-01T14:54:22.570Z,22.29
2023-05-01T14:57:30.798Z,22.10
2023-05-01T15:00:39.685Z,21.85
2023-05-01T15:03:50.152Z,21.54
2023-05-01T15:06:59.024Z,21.30
2023-05-01T15:10:07.382Z,21.39
2023-05-01T15:13:15.359Z,21.48
2023-05-01T15:16:26.313Z,21.20
2023-05-01T15:19:34.505Z,21.11
2023-05-01T15:22:43.800Z,21.06
2023-05-01T15:25:54.012Z,21.13
2023-05-01T15:29:02.779Z,21.11
2023-05-01T15:32:12.729Z,20.96
2023-05-01T15:35:12.224Z,20.93
2023-05-01T15:38:21.161Z,20.99
2023-05-01T15:41:29.946Z,21.09
2023-05-01T15:44:39.608Z,21.16
2023-05-01T15:47:48.005Z,21.04
2023-05-01T15:50:56.062Z,21.02
2023-05-01T15:54:04.273Z,20.87
2023-05-01T15:57:15.204Z,20.66
2023-05-01T16:00:24.288Z,20.54
2023-05-01T16:03:32.497Z,20.46
2023-05-01T16:06:42.653Z,20.49
2023-05-01T16:09:51.973Z,20.53
2023-05-01T16:13:00.750Z,20.59
2023-05-01T16:16:11.399Z,20.61
2023-05-01T16:19:19.722Z,20.62
2023-05-01T16:22:28.225Z,20.68
2023-05-01T16:25:38.663Z,20.68
2023-05-01T16:28:47.063Z,20.53
2023-05-01T16:31:56.265Z,20.49
2023-05-01T16:35:05.875Z,20.54
2023-05-01T16:38:14.680Z,20.64
2023-05-01T16:41:23.137Z,20.81
2023-05-01T16:44:31.454Z,20.91
2023-05-01T16:47:41.272Z,20.90
2023-05-01T16:50:49.755Z,20.90
2023-05-01T16:53:58.884Z,20.91
2023-05-01T16:57:08.654Z,20.91
2023-05-01T17:00:17.342Z,20.84
2023-05-01T17:03:25.200Z,20.79
2023-05-01T17:06:36.060Z,20.76
2023-05-01T17:09:44.057Z,20.77
2023-05-01T17:12:52.965Z,20.81
2023-05-01T17:16:03.087Z,20.77
2023-05-01T17:19:13.191Z,20.77
2023-05-01T17:22:21.601Z,20.80
2023-05-01T17:25:31.130Z,20.77
2023-05-01T17:28:31.831Z,20.64
2023-05-01T17:31:41.191Z,20.68
2023-05-01T17:34:49.175Z,20.76
2023-05-01T17:37:58.746Z,20.77
2023-05-01T17:41:07.213Z,20.83
2023-05-01T17:44:15.960Z,20.80
2023-05-01T17:47:26.358Z,20.38
2023-05-01T17:50:35.938Z,20.31
2023-05-01T17:53:44.845Z,20.25
2023-05-01T17:56:55.275Z,20.16
2023-05-01T18:00:03.565Z,20.03
2023-05-01T18:03:12.980Z,19.90
2023-05-01T18:06:21.430Z,19.75
2023-05-01T18:09:31.608Z,19.54
2023-05-01T18:12:39.938Z,19.39
2023-05-01T18:15:51.306Z,19.21
2023-05-01T18:18:51.261Z,18.87
2023-05-01T18:21:59.830Z,18.58
2023-05-01T18:25:08.312Z,18.37
2023-05-01T18:28:19.146Z,18.15
2023-05-01T18:31:27.271Z,17.94
2023-05-01T18:34:35.704Z,17.76
2023-05-01T18:37:35.840Z,17.63
2023-05-01T18:40:44.784Z,17.46
2023-05-01T18:43:56.316Z,17.22
2023-05-01T18:46:56.540Z,17.08
2023-05-01T18:50:06.330Z,16.83
2023-05-01T18:53:15.156Z,16.73
2023-05-01T18:56:24.777Z,16.55
2023-05-01T18:59:35.103Z,16.37
2023-05-01T19:02:43.817Z,16.11
2023-05-01T19:05:52.072Z,15.84
2023-05-01T19:09:01.488Z,15.67
2023-05-01T19:12:11.089Z,15.48
2023-05-01T19:15:19.716Z,15.30
2023-05-01T19:18:30.742Z,15.21
2023-05-01T19:21:39.129Z,15.11
2023-05-01T19:24:48.353Z,15.03
2023-05-01T19:27:58.853Z,14.88
2023-05-01T19:31:07.481Z,14.80
2023-05-01T19:34:15.602Z,14.75
2023-05-01T19:37:23.932Z,14.81
2023-05-01T19:40:34.220Z,14.83
2023-05-01T19:43:42.865Z,14.74
2023-05-01T19:46:51.010Z,14.69
2023-05-01T19:50:02.173Z,14.81
2023-05-01T19:53:10.717Z,14.93
2023-05-01T19:56:18.756Z,15.06
2023-05-01T19:59:29.499Z,15.11
2023-05-01T20:02:37.958Z,15.02
2023-05-01T20:05:47.266Z,14.87
2023-05-01T20:08:57.875Z,14.72
2023-05-01T20:12:06.681Z,14.78
2023-05-01T20:15:15.252Z,14.94
2023-05-01T20:18:23.839Z,14.99
2023-05-01T20:21:24.807Z,14.93
2023-05-01T20:24:32.942Z,14.67
2023-05-01T20:27:41.907Z,14.53
2023-05-01T20:30:52.028Z,14.37
2023-05-01T20:34:00.401Z,14.29
2023-05-01T20:37:08.944Z,14.38
2023-05-01T20:40:09.031Z,14.24
2023-05-01T20:43:17.713Z,14.12
2023-05-01T20:46:26.731Z,13.96
2023-05-01T20:49:26.420Z,13.88
2023-05-01T20:52:35.086Z,13.81
2023-05-01T20:55:43.637Z,13.77
2023-05-01T20:58:53.218Z,13.71
2023-05-01T21:02:02.775Z,13.69
2023-05-01T21:05:12.461Z,13.63
2023-05-01T21:08:21.087Z,13.59
2023-05-01T21:11:30.525Z,13.55
2023-05-01T21:14:40.239Z,13.52
2023-05-01T21:17:48.796Z,13.46
2023-05-01T21:20:58.765Z,13.43
2023-05-01T21:24:07.616Z,13.44
2023-05-01T21:27:16.000Z,13.47
2023-05-01T21:30:25.982Z,13.61
2023-05-01T21:33:35.508Z,13.71
2023-05-01T21:36:44.472Z,13.79
2023-05-01T21:39:52.435Z,13.83
2023-05-01T21:43:02.738Z,13.81
2023-05-01T21:46:11.543Z,13.77
2023-05-01T21:49:19.467Z,13.80
2023-05-01T21:52:30.267Z,13.79
2023-05-01T21:55:39.351Z,13.89
2023-05-01T21:58:47.724Z,13.99
2023-05-01T22:01:58.162Z,14.12
2023-05-01T22:05:06.664Z,14.20
2023-05-01T22:08:17.032Z,14.28
2023-05-01T22:11:27.443Z,14.29
2023-05-01T22:14:46.831Z,14.28
2023-05-01T22:17:42.229Z,14.27
2023-05-01T22:20:51.587Z,14.27
2023-05-01T22:24:00.687Z,14.25
2023-05-01T22:27:09.620Z,14.20
2023-05-01T22:30:18.598Z,14.19
2023-05-01T22:33:18.148Z,14.17
2023-05-01T22:36:27.136Z,14.16
2023-05-01T22:39:36.384Z,14.14
2023-05-01T22:42:36.052Z,14.14
2023-05-01T22:45:45.571Z,14.12
2023-05-01T22:48:54.378Z,14.09
2023-05-01T22:52:04.742Z,14.07
2023-05-01T22:55:13.413Z,14.06
2023-05-01T22:58:22.099Z,14.06
2023-05-01T23:01:21.690Z,14.01
2023-05-01T23:04:30.293Z,13.99
2023-05-01T23:07:39.405Z,13.96
2023-05-01T23:10:48.036Z,13.94
2023-05-01T23:13:58.027Z,13.91
2023-05-01T23:17:07.068Z,13.91
2023-05-01T23:20:16.420Z,13.88
2023-05-01T23:23:26.091Z,13.81
2023-05-01T23:26:35.285Z,13.79
2023-05-01T23:29:43.831Z,13.76
2023-05-01T23:32:54.164Z,13.70
2023-05-01T23:36:02.000Z,13.58
2023-05-01T23:39:10.556Z,13.51
2023-05-01T23:42:20.649Z,13.43
2023-05-01T23:45:29.185Z,13.33
2023-05-01T23:48:37.620Z,13.22
2023-05-01T23:51:46.436Z,13.17
2023-05-01T23:54:56.272Z,13.09
2023-05-01T23:58:04.758Z,13.04
